createdAt,value
2023-02-13T00:00:21.255Z,10.20
2023-02-13T00:02:47.856Z,13.77
2023-02-13T00:05:14.560Z,9.48
2023-02-13T00:07:41.026Z,8.40
2023-02-13T00:10:08.682Z,8.50
2023-02-13T00:12:35.711Z,9.23
2023-02-13T00:15:02.501Z,9.25
2023-02-13T00:17:29.077Z,9.23
2023-02-13T00:19:55.555Z,9.52
2023-02-13T00:22:22.251Z,11.27
2023-02-13T00:24:48.794Z,12.35
2023-02-13T00:27:15.279Z,9.02
2023-02-13T00:29:41.755Z,10.32
2023-02-13T00:32:08.989Z,10.07
2023-02-13T00:34:35.657Z,10.67
2023-02-13T00:37:03.206Z,11.07
2023-02-13T00:39:30.062Z,13.55
2023-02-13T00:41:56.595Z,11.52
2023-02-13T00:44:23.210Z,12.15
2023-02-13T00:46:49.891Z,9.60
2023-02-13T00:49:17.050Z,11.93
2023-02-13T00:51:43.700Z,7.40
2023-02-13T00:54:10.346Z,8.93
2023-02-13T00:56:37.317Z,8.45
2023-02-13T00:59:05.731Z,11.98
2023-02-13T01:01:32.680Z,8.57
2023-02-13T01:04:00.043Z,8.90
2023-02-13T01:06:27.635Z,8.68
2023-02-13T01:08:54.153Z,8.15
2023-02-13T01:11:20.959Z,7.20
2023-02-13T01:13:47.574Z,8.40
2023-02-13T01:16:14.369Z,8.85
2023-02-13T01:18:40.860Z,6.57
2023-02-13T01:21:09.336Z,7.93
2023-02-13T01:23:38.342Z,8.90
2023-02-13T01:26:07.102Z,7.72
2023-02-13T01:28:34.481Z,5.80
2023-02-13T01:31:01.686Z,5.70
2023-02-13T01:33:29.550Z,8.82
2023-02-13T01:35:56.061Z,6.78
2023-02-13T01:38:22.752Z,5.95
2023-02-13T01:40:52.037Z,6.45
2023-02-13T01:43:19.424Z,6.65
2023-02-13T01:45:48.911Z,6.25
2023-02-13T01:48:21.076Z,7.22
2023-02-13T01:50:55.869Z,6.00
2023-02-13T01:53:26.685Z,6.28
2023-02-13T01:56:00.325Z,6.40
2023-02-13T01:58:32.088Z,7.55
2023-02-13T02:00:59.506Z,5.82
2023-02-13T02:03:35.526Z,6.07
2023-02-13T02:08:35.582Z,5.85
2023-02-13T02:11:09.602Z,7.23
2023-02-13T02:13:36.481Z,5.80
2023-02-13T02:16:07.592Z,6.82
2023-02-13T02:18:34.220Z,7.28
2023-02-13T02:21:09.807Z,5.65
2023-02-13T02:23:45.152Z,5.88
2023-02-13T02:26:25.462Z,5.55
2023-02-13T02:29:13.853Z,6.55
2023-02-13T02:32:23.004Z,8.68
2023-02-13T02:34:53.601Z,6.60
2023-02-13T02:37:44.742Z,5.72
2023-02-13T02:40:36.894Z,4.97
2023-02-13T02:43:24.187Z,5.97
2023-02-13T02:46:26.845Z,6.07
2023-02-13T02:49:16.085Z,6.15
2023-02-13T02:52:01.799Z,6.22
2023-02-13T02:54:51.618Z,6.28
2023-02-13T02:57:25.015Z,5.32
2023-02-13T02:59:57.861Z,7.22
2023-02-13T03:02:24.909Z,5.55
2023-02-13T03:04:54.441Z,5.38
2023-02-13T03:07:23.146Z,4.75
2023-02-13T03:09:56.363Z,5.50
2023-02-13T03:12:25.918Z,4.85
2023-02-13T03:14:52.457Z,6.22
2023-02-13T03:17:19.893Z,6.63
2023-02-13T03:19:52.394Z,5.10
2023-02-13T03:22:26.677Z,7.53
2023-02-13T03:25:08.397Z,5.30
2023-02-13T03:27:51.193Z,5.50
2023-02-13T03:30:45.619Z,6.32
2023-02-13T03:33:28.605Z,5.45
2023-02-13T03:36:04.541Z,5.35
2023-02-13T03:38:54.848Z,5.43
2023-02-13T03:41:44.685Z,6.50
2023-02-13T03:44:20.183Z,5.88
2023-02-13T03:46:49.768Z,6.28
2023-02-13T03:49:19.889Z,7.20
2023-02-13T03:51:56.223Z,6.07
2023-02-13T03:54:37.532Z,4.78
2023-02-13T03:57:04.319Z,8.77
2023-02-13T03:59:34.944Z,5.15
2023-02-13T04:02:13.904Z,6.70
2023-02-13T04:04:50.727Z,6.55
2023-02-13T04:07:19.512Z,5.75
2023-02-13T04:09:46.095Z,6.43
2023-02-13T04:12:45.325Z,5.57
2023-02-13T04:15:28.308Z,6.65
2023-02-13T04:18:13.906Z,4.93
2023-02-13T04:20:40.670Z,7.18
2023-02-13T04:23:09.356Z,6.63
2023-02-13T04:25:38.860Z,7.13
2023-02-13T04:28:06.291Z,5.68
2023-02-13T04:30:33.627Z,4.43
2023-02-13T04:33:00.321Z,6.20
2023-02-13T04:35:26.837Z,4.43
2023-02-13T04:37:53.381Z,5.65
2023-02-13T04:40:20.160Z,7.00
2023-02-13T04:42:49.801Z,7.13
2023-02-13T04:45:16.678Z,4.63
2023-02-13T04:47:43.268Z,5.87
2023-02-13T04:50:10.175Z,7.65
2023-02-13T04:52:36.648Z,5.22
2023-02-13T04:55:03.321Z,9.07
2023-02-13T04:57:30.024Z,5.80
2023-02-13T04:59:56.486Z,5.47
2023-02-13T05:02:23.092Z,7.25
2023-02-13T05:04:49.685Z,5.60
2023-02-13T05:07:16.301Z,5.50
2023-02-13T05:09:42.920Z,6.60
2023-02-13T05:12:09.374Z,5.88
2023-02-13T05:14:36.034Z,5.90
2023-02-13T05:17:02.648Z,5.15
2023-02-13T05:19:29.188Z,6.07
2023-02-13T05:21:55.672Z,5.60
2023-02-13T05:24:22.401Z,5.07
2023-02-13T05:26:48.900Z,6.13
2023-02-13T05:29:15.402Z,6.15
2023-02-13T05:31:42.042Z,7.15
2023-02-13T05:34:08.700Z,6.60
2023-02-13T05:36:35.231Z,5.22
2023-02-13T05:39:01.932Z,5.80
2023-02-13T05:41:28.501Z,4.80
2023-02-13T05:43:55.044Z,5.35
2023-02-13T05:46:21.616Z,5.95
2023-02-13T05:48:48.203Z,8.38
2023-02-13T05:51:14.740Z,5.20
2023-02-13T05:53:41.287Z,5.72
2023-02-13T05:56:07.775Z,6.22
2023-02-13T05:58:34.844Z,6.55
2023-02-13T06:01:01.472Z,6.90
2023-02-13T06:03:29.751Z,6.60
2023-02-13T06:05:57.112Z,7.60
2023-02-13T06:08:23.959Z,5.70
2023-02-13T06:10:51.312Z,7.15
2023-02-13T06:13:18.667Z,6.05
2023-02-13T06:15:45.786Z,5.80
2023-02-13T06:18:12.377Z,5.97
2023-02-13T06:20:38.930Z,5.53
2023-02-13T06:23:05.440Z,5.72
2023-02-13T06:25:31.944Z,5.88
2023-02-13T06:27:58.484Z,6.28
2023-02-13T06:30:25.051Z,5.60
2023-02-13T06:32:51.657Z,5.95
2023-02-13T06:35:18.195Z,6.78
2023-02-13T06:37:44.885Z,6.72
2023-02-13T06:40:13.003Z,6.22
2023-02-13T06:45:06.895Z,4.95
2023-02-13T06:47:33.482Z,5.23
2023-02-13T06:50:00.017Z,7.15
2023-02-13T06:52:26.601Z,6.07
2023-02-13T06:54:53.284Z,5.10
2023-02-13T06:57:19.721Z,5.57
2023-02-13T06:59:46.205Z,7.55
2023-02-13T07:02:13.600Z,6.43
2023-02-13T07:04:40.346Z,6.53
2023-02-13T07:07:06.896Z,4.88
2023-02-13T07:09:33.783Z,7.00
2023-02-13T07:12:03.806Z,6.95
2023-02-13T07:14:30.475Z,7.60
2023-02-13T07:16:57.424Z,7.35
2023-02-13T07:19:23.894Z,6.28
2023-02-13T07:21:50.380Z,7.47
2023-02-13T07:24:16.940Z,5.40
2023-02-13T07:26:43.403Z,6.35
2023-02-13T07:29:11.791Z,7.22
2023-02-13T07:31:39.271Z,10.68
2023-02-13T07:34:06.176Z,7.97
2023-02-13T07:36:32.707Z,7.35
2023-02-13T07:38:59.325Z,6.28
2023-02-13T07:41:26.060Z,7.07
2023-02-13T07:43:53.353Z,7.18
2023-02-13T07:46:19.966Z,6.80
2023-02-13T07:48:46.596Z,7.47
2023-02-13T07:51:13.178Z,7.20
2023-02-13T07:53:39.938Z,7.15
2023-02-13T07:56:10.158Z,7.03
2023-02-13T07:58:37.993Z,6.10
2023-02-13T08:01:12.689Z,6.57
2023-02-13T08:03:39.340Z,7.00
2023-02-13T08:06:07.189Z,6.82
2023-02-13T08:08:34.591Z,6.18
2023-02-13T08:11:20.025Z,6.32
2023-02-13T08:13:46.582Z,7.00
2023-02-13T08:16:13.146Z,7.18
2023-02-13T08:18:39.841Z,7.05
2023-02-13T08:21:06.350Z,6.68
2023-02-13T08:23:32.966Z,7.53
2023-02-13T08:26:01.389Z,7.90
2023-02-13T08:28:31.260Z,7.65
2023-02-13T08:30:57.869Z,7.60
2023-02-13T08:33:24.601Z,7.60
2023-02-13T08:35:51.093Z,6.50
2023-02-13T08:38:24.916Z,6.00
2023-02-13T08:40:51.469Z,6.30
2023-02-13T08:43:18.214Z,6.85
2023-02-13T08:45:44.945Z,6.72
2023-02-13T08:48:17.476Z,6.25
2023-02-13T08:50:44.085Z,7.47
2023-02-13T08:53:10.805Z,6.57
2023-02-13T08:55:37.264Z,6.93
2023-02-13T08:58:04.961Z,6.88
2023-02-13T09:00:31.654Z,7.25
2023-02-13T09:03:03.114Z,5.93
2023-02-13T09:05:31.090Z,7.55
2023-02-13T09:08:00.894Z,7.07
2023-02-13T09:10:27.576Z,6.07
2023-02-13T09:12:54.935Z,6.95
2023-02-13T09:15:21.587Z,6.93
2023-02-13T09:17:48.271Z,6.30
2023-02-13T09:20:14.980Z,5.85
2023-02-13T09:22:41.931Z,5.82
2023-02-13T09:25:09.576Z,6.80
2023-02-13T09:27:36.226Z,6.50
2023-02-13T09:30:03.155Z,7.55
2023-02-13T09:32:29.839Z,6.18
2023-02-13T09:34:56.330Z,7.25
2023-02-13T09:37:23.147Z,5.22
2023-02-13T09:39:49.627Z,6.32
2023-02-13T09:42:26.829Z,6.20
2023-02-13T09:44:59.297Z,6.83
2023-02-13T09:47:35.921Z,5.25
2023-02-13T09:50:22.685Z,6.32
2023-02-13T09:52:52.697Z,6.30
2023-02-13T09:55:24.103Z,6.05
2023-02-13T09:58:03.154Z,6.90
2023-02-13T10:00:34.517Z,7.25
2023-02-13T10:03:23.449Z,7.85
2023-02-13T10:05:55.016Z,8.07
2023-02-13T10:08:43.281Z,7.20
2023-02-13T10:13:57.985Z,8.73
2023-02-13T10:16:35.247Z,6.28
2023-02-13T10:19:23.102Z,6.18
2023-02-13T10:24:21.981Z,6.13
2023-02-13T10:26:48.489Z,5.50
2023-02-13T10:29:23.568Z,6.72
2023-02-13T10:31:52.324Z,8.10
2023-02-13T10:34:24.991Z,8.73
2023-02-13T10:36:51.908Z,8.77
2023-02-13T10:39:25.193Z,6.80
2023-02-13T10:42:00.909Z,8.38
2023-02-13T10:44:37.761Z,7.72
2023-02-13T10:47:22.898Z,8.13
2023-02-13T10:50:31.855Z,9.48
2023-02-13T10:53:08.234Z,6.72
2023-02-13T10:56:04.287Z,6.85
2023-02-13T10:58:47.367Z,7.15
2023-02-13T11:01:24.426Z,8.52
2023-02-13T11:04:05.229Z,6.67
2023-02-13T11:06:34.673Z,7.75
2023-02-13T11:09:01.231Z,7.15
2023-02-13T11:11:36.760Z,7.93
2023-02-13T11:14:19.552Z,8.05
2023-02-13T11:17:05.161Z,7.75
2023-02-13T11:19:37.077Z,6.57
2023-02-13T11:22:05.656Z,7.95
2023-02-13T11:24:32.862Z,7.82
2023-02-13T11:27:03.559Z,7.63
2023-02-13T11:29:32.711Z,7.55
2023-02-13T11:32:14.600Z,7.43
2023-02-13T11:34:41.492Z,7.53
2023-02-13T11:37:16.254Z,6.43
2023-02-13T11:39:44.876Z,7.60
2023-02-13T11:42:20.182Z,7.90
2023-02-13T11:44:55.796Z,7.05
2023-02-13T11:47:36.074Z,7.57
2023-02-13T11:50:04.032Z,6.68
2023-02-13T11:52:33.876Z,6.75
2023-02-13T11:55:27.880Z,7.82
2023-02-13T11:58:00.295Z,8.48
2023-02-13T12:00:30.114Z,8.63
2023-02-13T12:02:56.780Z,8.52
2023-02-13T12:05:26.408Z,7.70
2023-02-13T12:07:57.343Z,7.35
2023-02-13T12:10:33.269Z,7.28
2023-02-13T12:13:07.173Z,8.73
2023-02-13T12:15:36.557Z,7.82
2023-02-13T12:18:05.612Z,7.78
2023-02-13T12:20:52.458Z,7.30
2023-02-13T12:23:34.009Z,7.18
2023-02-13T12:26:26.326Z,6.85
2023-02-13T12:29:37.086Z,6.47
2023-02-13T12:32:18.480Z,7.32
2023-02-13T12:35:27.361Z,8.73
2023-02-13T12:38:27.916Z,8.50
2023-02-13T12:41:05.279Z,8.68
2023-02-13T12:44:05.924Z,8.07
2023-02-13T12:47:01.279Z,8.88
2023-02-13T12:49:52.730Z,8.63
2023-02-13T12:52:38.169Z,7.85
2023-02-13T12:55:35.982Z,8.75
2023-02-13T12:58:23.314Z,8.57
2023-02-13T13:00:55.496Z,8.80
2023-02-13T13:03:43.673Z,8.45
2023-02-13T13:06:16.358Z,8.00
2023-02-13T13:08:58.035Z,7.97
2023-02-13T13:11:32.648Z,7.50
2023-02-13T13:14:19.115Z,7.63
2023-02-13T13:17:01.021Z,8.23
2023-02-13T13:19:48.009Z,7.55
2023-02-13T13:22:33.033Z,8.53
2023-02-13T13:25:12.672Z,10.45
2023-02-13T13:27:49.495Z,8.88
2023-02-13T13:30:23.559Z,8.90
2023-02-13T13:32:56.729Z,11.00
2023-02-13T13:35:23.510Z,8.50
2023-02-13T13:38:11.122Z,8.02
2023-02-13T13:41:09.437Z,8.95
2023-02-13T13:44:04.211Z,8.65
2023-02-13T13:46:57.211Z,8.15
2023-02-13T13:49:54.113Z,9.10
2023-02-13T13:52:27.428Z,8.98
2023-02-13T13:54:55.719Z,9.65
2023-02-13T13:57:25.683Z,8.82
2023-02-13T13:59:56.224Z,8.95
2023-02-13T14:02:22.718Z,8.10
2023-02-13T14:05:11.136Z,8.73
2023-02-13T14:07:40.185Z,7.22
2023-02-13T14:10:25.646Z,7.95
2023-02-13T14:12:58.073Z,7.45
2023-02-13T14:15:33.780Z,7.95
2023-02-13T14:18:12.215Z,9.50
2023-02-13T14:20:47.578Z,8.52
2023-02-13T14:23:19.161Z,9.55
2023-02-13T14:25:46.060Z,9.18
2023-02-13T14:28:27.052Z,8.60
2023-02-13T14:31:07.119Z,8.52
2023-02-13T14:33:34.061Z,9.15
2023-02-13T14:36:17.094Z,7.93
2023-02-13T14:38:43.645Z,9.18
2023-02-13T14:41:48.914Z,9.93
2023-02-13T14:44:20.301Z,8.43
2023-02-13T14:46:49.347Z,9.18
2023-02-13T14:49:21.316Z,8.52
2023-02-13T14:52:00.104Z,9.68
2023-02-13T14:54:45.368Z,8.88
2023-02-13T14:57:44.672Z,9.50
2023-02-13T15:00:17.630Z,7.38
2023-02-13T15:02:53.170Z,9.23
2023-02-13T15:05:21.016Z,10.43
2023-02-13T15:07:59.085Z,9.23
2023-02-13T15:10:34.646Z,8.90
2023-02-13T15:13:02.829Z,9.00
2023-02-13T15:18:18.993Z,9.40
2023-02-13T15:20:46.969Z,7.03
2023-02-13T15:23:25.897Z,7.90
2023-02-13T15:26:04.514Z,8.82
2023-02-13T15:28:32.243Z,8.63
2023-02-13T15:31:04.675Z,7.85
2023-02-13T15:33:51.015Z,8.60
2023-02-13T15:36:26.627Z,8.55
2023-02-13T15:39:00.565Z,8.85
2023-02-13T15:41:37.381Z,9.73
2023-02-13T15:44:04.958Z,9.15
2023-02-13T15:46:34.017Z,8.48
2023-02-13T15:49:09.460Z,8.95
2023-02-13T15:51:36.475Z,8.43
2023-02-13T15:54:05.784Z,8.15
2023-02-13T15:56:33.617Z,8.48
2023-02-13T15:59:01.406Z,8.55
2023-02-13T16:01:29.216Z,7.55
2023-02-13T16:04:04.288Z,7.47
2023-02-13T16:06:33.092Z,8.13
2023-02-13T16:09:01.068Z,9.02
2023-02-13T16:11:39.999Z,6.30
2023-02-13T16:14:21.178Z,6.70
2023-02-13T16:16:57.746Z,6.78
2023-02-13T16:19:41.636Z,8.95
2023-02-13T16:22:21.157Z,7.47
2023-02-13T16:24:52.019Z,6.40
2023-02-13T16:27:23.610Z,10.07
2023-02-13T16:30:02.063Z,9.30
2023-02-13T16:32:35.389Z,7.72
2023-02-13T16:35:27.268Z,7.65
2023-02-13T16:37:57.982Z,7.25
2023-02-13T16:40:27.520Z,6.75
2023-02-13T16:42:54.058Z,9.98
2023-02-13T16:45:24.276Z,7.55
2023-02-13T16:47:59.725Z,6.57
2023-02-13T16:50:26.211Z,6.50
2023-02-13T16:53:00.849Z,8.50
2023-02-13T16:55:27.473Z,7.82
2023-02-13T16:58:02.022Z,7.03
2023-02-13T17:00:28.529Z,6.47
2023-02-13T17:02:55.026Z,6.97
2023-02-13T17:05:24.431Z,9.02
2023-02-13T17:07:53.384Z,7.95
2023-02-13T17:10:31.666Z,7.40
2023-02-13T17:13:00.837Z,6.75
2023-02-13T17:15:30.612Z,7.15
2023-02-13T17:17:57.513Z,7.05
2023-02-13T17:20:27.569Z,8.00
2023-02-13T17:22:59.261Z,9.07
2023-02-13T17:25:29.311Z,10.45
2023-02-13T17:27:58.223Z,8.80
2023-02-13T17:30:28.591Z,8.30
2023-02-13T17:33:07.745Z,9.27
2023-02-13T17:35:34.803Z,8.93
2023-02-13T17:38:01.323Z,8.32
2023-02-13T17:40:28.044Z,9.18
2023-02-13T17:42:56.170Z,9.25
2023-02-13T17:45:25.314Z,9.27
2023-02-13T17:47:53.081Z,10.65
2023-02-13T17:50:20.772Z,8.75
2023-02-13T17:52:48.447Z,8.13
2023-02-13T17:55:27.539Z,8.25
2023-02-13T17:57:55.720Z,10.02
2023-02-13T18:00:24.033Z,8.43
2023-02-13T18:02:51.424Z,10.55
2023-02-13T18:05:19.398Z,9.80
2023-02-13T18:07:47.497Z,9.90
2023-02-13T18:12:46.395Z,9.07
2023-02-13T18:15:13.786Z,11.45
2023-02-13T18:17:41.129Z,10.32
2023-02-13T18:20:11.465Z,9.93
2023-02-13T18:22:38.011Z,9.93
2023-02-13T18:25:05.389Z,11.60
2023-02-13T18:27:31.914Z,8.60
2023-02-13T18:29:58.772Z,9.65
2023-02-13T18:32:25.653Z,10.05
2023-02-13T18:34:52.214Z,8.77
2023-02-13T18:37:19.418Z,9.15
2023-02-13T18:39:45.998Z,9.37
2023-02-13T18:42:12.864Z,10.60
2023-02-13T18:44:40.154Z,10.48
2023-02-13T18:47:07.108Z,8.60
2023-02-13T18:49:33.670Z,13.80
2023-02-13T18:52:00.126Z,9.00
2023-02-13T18:54:26.621Z,9.65
2023-02-13T18:56:53.364Z,10.65
2023-02-13T18:59:19.971Z,11.70
2023-02-13T19:01:46.561Z,9.02
2023-02-13T19:04:13.112Z,9.88
2023-02-13T19:06:41.398Z,11.82
2023-02-13T19:09:08.196Z,10.07
2023-02-13T19:11:35.092Z,7.95
2023-02-13T19:14:01.704Z,9.57
2023-02-13T19:16:30.426Z,8.98
2023-02-13T19:19:00.029Z,10.13
2023-02-13T19:21:29.865Z,10.75
2023-02-13T19:23:57.026Z,9.75
2023-02-13T19:26:25.537Z,11.38
2023-02-13T19:28:52.587Z,11.25
2023-02-13T19:31:22.455Z,10.93
2023-02-13T19:33:50.012Z,12.18
2023-02-13T19:36:27.519Z,10.10
2023-02-13T19:39:06.098Z,12.50
2023-02-13T19:41:32.922Z,16.98
2023-02-13T19:43:59.941Z,11.32
2023-02-13T19:46:29.480Z,9.55
2023-02-13T19:48:56.296Z,13.50
2023-02-13T19:51:33.752Z,9.75
2023-02-13T19:54:06.013Z,13.18
2023-02-13T19:56:36.350Z,8.77
2023-02-13T19:59:04.385Z,11.18
2023-02-13T20:01:30.919Z,11.95
2023-02-13T20:03:57.780Z,14.00
2023-02-13T20:06:28.041Z,14.50
2023-02-13T20:08:59.508Z,13.98
2023-02-13T20:11:26.076Z,11.88
2023-02-13T20:13:54.054Z,11.15
2023-02-13T20:16:20.689Z,12.00
2023-02-13T20:18:47.511Z,16.35
2023-02-13T20:21:16.005Z,13.07
2023-02-13T20:23:43.627Z,15.05
2023-02-13T20:26:13.953Z,13.85
2023-02-13T20:28:42.168Z,14.38
2023-02-13T20:31:13.953Z,9.40
2023-02-13T20:33:40.887Z,12.23
2023-02-13T20:36:13.973Z,11.90
2023-02-13T20:38:41.230Z,16.73
2023-02-13T20:41:13.302Z,17.37
2023-02-13T20:43:39.881Z,14.82
2023-02-13T20:46:07.176Z,11.13
2023-02-13T20:48:38.000Z,11.20
2023-02-13T20:51:07.267Z,12.23
2023-02-13T20:53:34.484Z,10.35
2023-02-13T20:56:29.297Z,11.77
2023-02-13T20:58:58.346Z,11.77
2023-02-13T21:01:32.083Z,10.07
2023-02-13T21:03:59.241Z,8.82
2023-02-13T21:06:32.047Z,13.88
2023-02-13T21:08:58.829Z,11.52
2023-02-13T21:11:26.313Z,11.98
2023-02-13T21:13:52.848Z,11.68
2023-02-13T21:16:23.154Z,18.10
2023-02-13T21:18:51.694Z,15.00
2023-02-13T21:21:20.228Z,10.25
2023-02-13T21:23:47.171Z,12.75
2023-02-13T21:26:16.741Z,9.80
2023-02-13T21:28:45.722Z,8.65
2023-02-13T21:31:19.251Z,12.95
2023-02-13T21:33:46.322Z,11.52
2023-02-13T21:36:13.235Z,13.38
2023-02-13T21:38:41.075Z,10.50
2023-02-13T21:41:13.752Z,10.00
2023-02-13T21:43:41.548Z,12.38
2023-02-13T21:46:10.484Z,12.05
2023-02-13T21:48:38.277Z,11.63
2023-02-13T21:51:07.696Z,11.70
2023-02-13T21:53:34.607Z,8.88
2023-02-13T21:56:02.800Z,9.13
2023-02-13T22:00:58.685Z,13.10
2023-02-13T22:03:25.390Z,12.85
2023-02-13T22:05:52.034Z,9.50
2023-02-13T22:08:18.519Z,11.07
2023-02-13T22:10:53.910Z,12.40
2023-02-13T22:13:20.403Z,12.63
2023-02-13T22:15:46.947Z,10.88
2023-02-13T22:18:13.548Z,12.23
2023-02-13T22:20:40.223Z,11.95
2023-02-13T22:23:06.848Z,10.40
2023-02-13T22:25:33.438Z,12.60
2023-02-13T22:27:59.949Z,9.48
2023-02-13T22:30:26.592Z,7.63
2023-02-13T22:32:53.096Z,7.85
2023-02-13T22:35:19.607Z,7.35
2023-02-13T22:37:46.171Z,8.20
2023-02-13T22:40:12.899Z,7.65
2023-02-13T22:42:39.503Z,10.27
2023-02-13T22:45:06.322Z,9.95
2023-02-13T22:47:32.939Z,10.07
2023-02-13T22:49:59.554Z,9.48
2023-02-13T22:52:25.999Z,8.15
2023-02-13T22:54:52.476Z,7.72
2023-02-13T22:57:18.987Z,8.60
2023-02-13T22:59:45.470Z,8.38
2023-02-13T23:02:12.085Z,7.22
2023-02-13T23:04:38.642Z,9.70
2023-02-13T23:07:05.286Z,9.05
2023-02-13T23:09:31.845Z,8.13
2023-02-13T23:11:58.351Z,7.78
2023-02-13T23:14:25.152Z,9.00
2023-02-13T23:16:51.759Z,6.65
2023-02-13T23:19:18.677Z,7.20
2023-02-13T23:21:45.159Z,9.27
2023-02-13T23:24:11.760Z,9.75
2023-02-13T23:26:38.282Z,8.25
2023-02-13T23:29:04.841Z,9.02
2023-02-13T23:31:31.462Z,9.27
2023-02-13T23:33:58.062Z,9.50
2023-02-13T23:36:24.741Z,7.85
2023-02-13T23:38:51.253Z,10.40
2023-02-13T23:41:17.881Z,9.48
2023-02-13T23:43:44.613Z,11.13
2023-02-13T23:46:11.187Z,10.07
2023-02-13T23:48:37.727Z,8.65
2023-02-13T23:51:04.342Z,8.73
2023-02-13T23:53:30.977Z,11.80
2023-02-13T23:55:57.504Z,9.65
2023-02-13T23:58:24.057Z,11.80
